CWL weather

Cardiff International Airport
Cardiff, Wales, United Kingdom

Public forecast

Using degrees Celsius for public forecast. Weather courtesy of forecast.io.

Current aviation weather report (METAR) for Cardiff International Airport

Retrieved 2019/12/07 18:20 UTC (21 minutes ago):

EGFF 071820Z AUTO 21005KT 170V240 9999 BKN016 09/08 Q1010

Aviation forecast (TAF) for Cardiff International Airport

Retrieved 2019/12/07 18:00 UTC (41 minutes ago):

TAF EGFF 071704Z 0718/0818 24007KT 9999 BKN018 TEMPO 0718/0724 BKN012 BECMG 0722/0801 22017KT TEMPO 0722/0803 22020G30KT 6000 RA PROB30 TEMPO 0723/0802 3000 +RA BKN009 BECMG 0801/0804 26020KT TEMPO 0801/0806 26023G33KT PROB30 TEMPO 0801/0818 26030G43KT PROB40 TEMPO 0802/0804 3000 BR BKN004 PROB30 TEMPO 0809/0818 2500 +SHRA SHGS BKN012CB